sensor_id;sensor_type;location;lat;lon;timestamp;pressure;altitude;pressure_sealevel;temperature;humidity
67818;BME280;54614;47.576;7.524;2022-07-04T00:00:41;98648.28;;;26.46;51.16
67818;BME280;54614;47.576;7.524;2022-07-04T00:03:07;98657.91;;;26.10;51.68
67818;BME280;54614;47.576;7.524;2022-07-04T00:05:33;98668.53;;;26.05;51.87
67818;BME280;54614;47.576;7.524;2022-07-04T00:07:59;98667.09;;;25.96;52.41
67818;BME280;54614;47.576;7.524;2022-07-04T00:10:24;98665.22;;;26.28;51.83
67818;BME280;54614;47.576;7.524;2022-07-04T00:12:50;98671.22;;;26.55;51.30
67818;BME280;54614;47.576;7.524;2022-07-04T00:15:17;98665.59;;;26.56;51.40
67818;BME280;54614;47.576;7.524;2022-07-04T00:17:42;98667.94;;;26.53;51.44
67818;BME280;54614;47.576;7.524;2022-07-04T00:20:10;98671.22;;;26.55;51.65
67818;BME280;54614;47.576;7.524;2022-07-04T00:22:36;98676.69;;;26.48;51.70
67818;BME280;54614;47.576;7.524;2022-07-04T00:25:03;98682.03;;;26.55;51.64
67818;BME280;54614;47.576;7.524;2022-07-04T00:27:30;98686.66;;;26.48;51.83
67818;BME280;54614;47.576;7.524;2022-07-04T00:29:55;98685.97;;;26.52;51.71
67818;BME280;54614;47.576;7.524;2022-07-04T00:32:21;98682.03;;;26.55;51.84
67818;BME280;54614;47.576;7.524;2022-07-04T00:34:47;98655.66;;;26.57;51.73
67818;BME280;54614;47.576;7.524;2022-07-04T00:37:14;98626.56;;;26.59;51.53
67818;BME280;54614;47.576;7.524;2022-07-04T00:39:39;98653.38;;;26.54;51.68
67818;BME280;54614;47.576;7.524;2022-07-04T00:42:06;98662.53;;;26.53;51.98
67818;BME280;54614;47.576;7.524;2022-07-04T00:44:32;98660.44;;;26.55;51.76
67818;BME280;54614;47.576;7.524;2022-07-04T00:47:03;98679.94;;;26.57;51.91
67818;BME280;54614;47.576;7.524;2022-07-04T00:49:29;98679.53;;;26.53;51.88
67818;BME280;54614;47.576;7.524;2022-07-04T00:51:56;98683.06;;;26.54;51.99
67818;BME280;54614;47.576;7.524;2022-07-04T00:54:28;98702.41;;;26.51;51.96
67818;BME280;54614;47.576;7.524;2022-07-04T00:56:56;98712.97;;;26.52;51.70
67818;BME280;54614;47.576;7.524;2022-07-04T00:59:23;98698.59;;;26.58;51.59
67818;BME280;54614;47.576;7.524;2022-07-04T01:01:50;98715.44;;;26.54;51.94
67818;BME280;54614;47.576;7.524;2022-07-04T01:04:17;98726.44;;;26.52;51.90
67818;BME280;54614;47.576;7.524;2022-07-04T01:06:44;98729.97;;;26.53;51.97
67818;BME280;54614;47.576;7.524;2022-07-04T01:09:11;98716.03;;;26.56;51.89
67818;BME280;54614;47.576;7.524;2022-07-04T01:11:38;98721.00;;;26.59;52.00
67818;BME280;54614;47.576;7.524;2022-07-04T01:14:04;98714.34;;;26.61;51.72
67818;BME280;54614;47.576;7.524;2022-07-04T01:16:32;98709.00;;;26.55;52.04
67818;BME280;54614;47.576;7.524;2022-07-04T01:18:59;98706.75;;;26.52;51.82
67818;BME280;54614;47.576;7.524;2022-07-04T01:21:25;98711.59;;;26.43;52.29
67818;BME280;54614;47.576;7.524;2022-07-04T01:23:51;98723.19;;;26.44;52.28
67818;BME280;54614;47.576;7.524;2022-07-04T01:26:17;98728.81;;;26.42;52.41
67818;BME280;54614;47.576;7.524;2022-07-04T01:28:44;98744.56;;;26.45;52.32
67818;BME280;54614;47.576;7.524;2022-07-04T01:31:10;98741.66;;;26.47;52.44
67818;BME280;54614;47.576;7.524;2022-07-04T01:33:36;98760.31;;;26.48;52.28
67818;BME280;54614;47.576;7.524;2022-07-04T01:36:02;98760.91;;;26.50;52.20
67818;BME280;54614;47.576;7.524;2022-07-04T01:38:28;98771.00;;;26.61;52.41
67818;BME280;54614;47.576;7.524;2022-07-04T01:40:54;98792.75;;;26.67;52.03
67818;BME280;54614;47.576;7.524;2022-07-04T01:43:20;98807.09;;;26.60;52.15
67818;BME280;54614;47.576;7.524;2022-07-04T01:45:46;98789.16;;;26.48;52.44
67818;BME280;54614;47.576;7.524;2022-07-04T01:48:14;98808.25;;;26.46;52.48
67818;BME280;54614;47.576;7.524;2022-07-04T01:50:40;98819.44;;;26.50;52.35
67818;BME280;54614;47.576;7.524;2022-07-04T01:53:06;98808.66;;;26.50;52.54
67818;BME280;54614;47.576;7.524;2022-07-04T01:55:32;98812.81;;;26.46;52.47
67818;BME280;54614;47.576;7.524;2022-07-04T01:57:58;98813.88;;;26.45;52.64
67818;BME280;54614;47.576;7.524;2022-07-04T02:00:26;98812.47;;;26.36;52.69
67818;BME280;54614;47.576;7.524;2022-07-04T02:03:11;98817.94;;;26.22;52.87
67818;BME280;54614;47.576;7.524;2022-07-04T02:05:37;98823.25;;;26.36;52.97
67818;BME280;54614;47.576;7.524;2022-07-04T02:08:07;98828.06;;;26.33;52.54
67818;BME280;54614;47.576;7.524;2022-07-04T02:10:34;98822.22;;;26.37;52.72
67818;BME280;54614;47.576;7.524;2022-07-04T02:13:02;98822.06;;;26.25;52.89
67818;BME280;54614;47.576;7.524;2022-07-04T02:15:35;98828.94;;;26.21;53.23
67818;BME280;54614;47.576;7.524;2022-07-04T02:18:05;98831.25;;;26.11;53.38
67818;BME280;54614;47.576;7.524;2022-07-04T02:20:32;98820.63;;;26.22;52.90
67818;BME280;54614;47.576;7.524;2022-07-04T02:22:58;98814.63;;;26.20;53.10
67818;BME280;54614;47.576;7.524;2022-07-04T02:25:24;98812.19;;;26.12;53.46
67818;BME280;54614;47.576;7.524;2022-07-04T02:27:50;98799.22;;;26.27;52.83
67818;BME280;54614;47.576;7.524;2022-07-04T02:30:16;98784.47;;;26.30;53.04
67818;BME280;54614;47.576;7.524;2022-07-04T02:32:42;98777.25;;;26.24;52.95
67818;BME280;54614;47.576;7.524;2022-07-04T02:35:09;98783.03;;;26.27;53.14
67818;BME280;54614;47.576;7.524;2022-07-04T02:37:36;98784.69;;;26.28;52.86
67818;BME280;54614;47.576;7.524;2022-07-04T02:40:04;98777.09;;;26.19;52.99
67818;BME280;54614;47.576;7.524;2022-07-04T02:42:32;98767.38;;;26.11;53.28
67818;BME280;54614;47.576;7.524;2022-07-04T02:44:59;98766.16;;;26.07;53.47
67818;BME280;54614;47.576;7.524;2022-07-04T02:47:26;98759.56;;;26.03;53.48
67818;BME280;54614;47.576;7.524;2022-07-04T02:49:53;98749.38;;;26.05;53.65
67818;BME280;54614;47.576;7.524;2022-07-04T02:52:18;98742.81;;;26.26;52.86
67818;BME280;54614;47.576;7.524;2022-07-04T02:54:44;98736.44;;;26.20;52.96
67818;BME280;54614;47.576;7.524;2022-07-04T02:57:13;98727.13;;;26.16;53.19
67818;BME280;54614;47.576;7.524;2022-07-04T02:59:39;98725.63;;;26.20;53.23
67818;BME280;54614;47.576;7.524;2022-07-04T03:02:05;98722.03;;;26.01;53.82
67818;BME280;54614;47.576;7.524;2022-07-04T03:04:31;98728.66;;;25.99;53.57
67818;BME280;54614;47.576;7.524;2022-07-04T03:06:57;98719.97;;;26.04;53.74
67818;BME280;54614;47.576;7.524;2022-07-04T03:09:23;98712.88;;;26.09;53.29
67818;BME280;54614;47.576;7.524;2022-07-04T03:11:52;98720.56;;;26.06;53.51
67818;BME280;54614;47.576;7.524;2022-07-04T03:14:18;98725.97;;;25.99;53.70
67818;BME280;54614;47.576;7.524;2022-07-04T03:16:44;98725.78;;;25.94;54.02
67818;BME280;54614;47.576;7.524;2022-07-04T03:19:09;98723.66;;;26.09;53.59
67818;BME280;54614;47.576;7.524;2022-07-04T03:21:35;98720.50;;;26.12;53.53
67818;BME280;54614;47.576;7.524;2022-07-04T03:24:01;98727.84;;;26.30;53.19
67818;BME280;54614;47.576;7.524;2022-07-04T03:26:31;98735.22;;;26.16;53.30
67818;BME280;54614;47.576;7.524;2022-07-04T03:28:58;98732.38;;;26.05;53.84
67818;BME280;54614;47.576;7.524;2022-07-04T03:31:25;98730.13;;;25.95;54.11
67818;BME280;54614;47.576;7.524;2022-07-04T03:33:53;98716.66;;;26.01;53.99
67818;BME280;54614;47.576;7.524;2022-07-04T03:36:19;98708.91;;;26.12;53.70
67818;BME280;54614;47.576;7.524;2022-07-04T03:38:46;98704.63;;;25.97;54.10
67818;BME280;54614;47.576;7.524;2022-07-04T03:41:12;98701.75;;;25.92;54.23
67818;BME280;54614;47.576;7.524;2022-07-04T03:43:39;98708.41;;;25.90;54.26
67818;BME280;54614;47.576;7.524;2022-07-04T03:46:05;98713.56;;;25.91;53.96
67818;BME280;54614;47.576;7.524;2022-07-04T03:48:31;98723.09;;;25.94;53.98
67818;BME280;54614;47.576;7.524;2022-07-04T03:50:57;98738.00;;;26.03;53.89
67818;BME280;54614;47.576;7.524;2022-07-04T03:53:23;98749.00;;;26.01;53.85
67818;BME280;54614;47.576;7.524;2022-07-04T03:55:49;98775.13;;;25.94;54.00
67818;BME280;54614;47.576;7.524;2022-07-04T03:58:15;98775.78;;;25.90;54.19
67818;BME280;54614;47.576;7.524;2022-07-04T04:00:41;98780.34;;;25.89;54.30
67818;BME280;54614;47.576;7.524;2022-07-04T04:03:10;98782.44;;;25.87;54.23
67818;BME280;54614;47.576;7.524;2022-07-04T04:05:55;98788.81;;;25.93;54.11
67818;BME280;54614;47.576;7.524;2022-07-04T04:08:22;98810.19;;;25.88;54.31
67818;BME280;54614;47.576;7.524;2022-07-04T04:10:49;98821.63;;;26.28;52.89
67818;BME280;54614;47.576;7.524;2022-07-04T04:13:16;98832.94;;;26.05;53.55
67818;BME280;54614;47.576;7.524;2022-07-04T04:15:42;98846.09;;;25.82;54.37
67818;BME280;54614;47.576;7.524;2022-07-04T04:18:08;98865.81;;;25.62;54.87
67818;BME280;54614;47.576;7.524;2022-07-04T04:20:34;98880.56;;;25.53;55.20
67818;BME280;54614;47.576;7.524;2022-07-04T04:23:00;98886.13;;;25.58;55.24
67818;BME280;54614;47.576;7.524;2022-07-04T04:25:26;98884.28;;;25.65;54.70
67818;BME280;54614;47.576;7.524;2022-07-04T04:27:52;98901.88;;;25.55;55.07
67818;BME280;54614;47.576;7.524;2022-07-04T04:30:18;98911.84;;;25.41;54.95
67818;BME280;54614;47.576;7.524;2022-07-04T04:32:44;98911.03;;;25.27;55.62
67818;BME280;54614;47.576;7.524;2022-07-04T04:35:10;98919.13;;;25.21;55.86
67818;BME280;54614;47.576;7.524;2022-07-04T04:37:36;98924.50;;;25.14;55.83
67818;BME280;54614;47.576;7.524;2022-07-04T04:40:02;98919.31;;;25.13;56.02
67818;BME280;54614;47.576;7.524;2022-07-04T04:42:28;98913.94;;;25.06;56.01
67818;BME280;54614;47.576;7.524;2022-07-04T04:44:54;98894.06;;;25.00;56.47
67818;BME280;54614;47.576;7.524;2022-07-04T04:47:19;98903.75;;;24.95;56.58
67818;BME280;54614;47.576;7.524;2022-07-04T04:49:45;98899.41;;;24.87;56.90
67818;BME280;54614;47.576;7.524;2022-07-04T04:52:13;98899.63;;;24.79;56.99
67818;BME280;54614;47.576;7.524;2022-07-04T04:54:39;98897.53;;;24.81;57.05
67818;BME280;54614;47.576;7.524;2022-07-04T04:57:05;98892.56;;;24.78;57.28
67818;BME280;54614;47.576;7.524;2022-07-04T04:59:32;98898.38;;;24.82;56.95
67818;BME280;54614;47.576;7.524;2022-07-04T05:01:59;98884.50;;;24.78;57.27
67818;BME280;54614;47.576;7.524;2022-07-04T05:04:25;98885.25;;;24.39;58.59
67818;BME280;54614;47.576;7.524;2022-07-04T05:06:52;98876.41;;;23.97;59.76
67818;BME280;54614;47.576;7.524;2022-07-04T05:09:18;98869.09;;;23.78;60.88
67818;BME280;54614;47.576;7.524;2022-07-04T05:11:45;98854.31;;;24.02;59.89
67818;BME280;54614;47.576;7.524;2022-07-04T05:14:11;98829.09;;;24.03;59.81
67818;BME280;54614;47.576;7.524;2022-07-04T05:16:37;98762.75;;;21.37;69.79
67818;BME280;54614;47.576;7.524;2022-07-04T05:19:03;98735.13;;;22.79;64.56
67818;BME280;54614;47.576;7.524;2022-07-04T05:21:29;98792.06;;;23.92;60.68
67818;BME280;54614;47.576;7.524;2022-07-04T05:23:56;98809.28;;;24.17;59.69
67818;BME280;54614;47.576;7.524;2022-07-04T05:26:22;98788.47;;;24.32;59.34
67818;BME280;54614;47.576;7.524;2022-07-04T05:28:48;98817.38;;;24.24;59.51
67818;BME280;54614;47.576;7.524;2022-07-04T05:31:14;98851.44;;;22.00;67.76
67818;BME280;54614;47.576;7.524;2022-07-04T05:33:40;98836.66;;;22.61;65.68
67818;BME280;54614;47.576;7.524;2022-07-04T05:36:07;98817.03;;;23.38;63.20
67818;BME280;54614;47.576;7.524;2022-07-04T05:38:33;98845.59;;;23.93;67.29
67818;BME280;54614;47.576;7.524;2022-07-04T05:41:00;98835.56;;;21.47;70.22
67818;BME280;54614;47.576;7.524;2022-07-04T05:43:26;98814.13;;;21.62;69.80
67818;BME280;54614;47.576;7.524;2022-07-04T05:45:52;98815.72;;;22.07;69.11
67818;BME280;54614;47.576;7.524;2022-07-04T05:48:19;98812.97;;;20.83;71.54
67818;BME280;54614;47.576;7.524;2022-07-04T05:50:45;98797.28;;;21.83;69.11
67818;BME280;54614;47.576;7.524;2022-07-04T05:53:11;98802.53;;;22.76;65.16
67818;BME280;54614;47.576;7.524;2022-07-04T05:55:37;98826.91;;;23.03;64.01
67818;BME280;54614;47.576;7.524;2022-07-04T05:58:03;98817.69;;;23.12;64.36
67818;BME280;54614;47.576;7.524;2022-07-04T06:00:29;98829.00;;;23.42;62.67
67818;BME280;54614;47.576;7.524;2022-07-04T06:02:55;98844.00;;;23.30;63.70
67818;BME280;54614;47.576;7.524;2022-07-04T06:05:21;98836.06;;;23.15;64.17
67818;BME280;54614;47.576;7.524;2022-07-04T06:07:47;98847.22;;;23.46;62.55
67818;BME280;54614;47.576;7.524;2022-07-04T06:10:14;98851.09;;;23.37;63.25
67818;BME280;54614;47.576;7.524;2022-07-04T06:12:41;98853.38;;;23.40;63.20
67818;BME280;54614;47.576;7.524;2022-07-04T06:15:07;98849.78;;;23.55;62.68
67818;BME280;54614;47.576;7.524;2022-07-04T06:17:36;98855.56;;;23.58;62.44
67818;BME280;54614;47.576;7.524;2022-07-04T06:20:03;98855.63;;;23.71;62.45
67818;BME280;54614;47.576;7.524;2022-07-04T06:22:46;98847.19;;;23.74;61.76
67818;BME280;54614;47.576;7.524;2022-07-04T06:25:15;98847.63;;;23.78;60.79
67818;BME280;54614;47.576;7.524;2022-07-04T06:27:43;98841.16;;;23.66;61.44
67818;BME280;54614;47.576;7.524;2022-07-04T06:30:10;98828.34;;;23.68;61.08
67818;BME280;54614;47.576;7.524;2022-07-04T06:32:44;98820.09;;;23.69;60.92
67818;BME280;54614;47.576;7.524;2022-07-04T06:35:11;98816.97;;;23.66;60.73
67818;BME280;54614;47.576;7.524;2022-07-04T06:37:56;98820.91;;;23.63;61.14
67818;BME280;54614;47.576;7.524;2022-07-04T06:40:23;98839.06;;;23.61;61.51
67818;BME280;54614;47.576;7.524;2022-07-04T06:42:50;98835.25;;;23.49;62.91
67818;BME280;54614;47.576;7.524;2022-07-04T06:45:16;98834.41;;;23.14;64.38
67818;BME280;54614;47.576;7.524;2022-07-04T06:47:44;98832.75;;;23.13;63.91
67818;BME280;54614;47.576;7.524;2022-07-04T06:50:10;98840.09;;;22.12;67.34
67818;BME280;54614;47.576;7.524;2022-07-04T06:52:36;98840.28;;;22.54;65.90
67818;BME280;54614;47.576;7.524;2022-07-04T06:55:02;98843.94;;;22.89;64.74
67818;BME280;54614;47.576;7.524;2022-07-04T06:57:28;98848.28;;;23.18;63.91
67818;BME280;54614;47.576;7.524;2022-07-04T06:59:54;98842.84;;;23.39;62.84
67818;BME280;54614;47.576;7.524;2022-07-04T07:02:19;98834.41;;;23.48;62.40
67818;BME280;54614;47.576;7.524;2022-07-04T07:04:45;98835.34;;;23.62;61.53
67818;BME280;54614;47.576;7.524;2022-07-04T07:07:11;98826.72;;;23.73;60.45
67818;BME280;54614;47.576;7.524;2022-07-04T07:09:37;98832.94;;;23.74;60.89
67818;BME280;54614;47.576;7.524;2022-07-04T07:12:03;98837.28;;;23.82;60.58
67818;BME280;54614;47.576;7.524;2022-07-04T07:14:29;98832.16;;;23.87;60.43
67818;BME280;54614;47.576;7.524;2022-07-04T07:16:56;98837.13;;;23.90;60.70
67818;BME280;54614;47.576;7.524;2022-07-04T07:19:21;98836.31;;;23.96;60.09
67818;BME280;54614;47.576;7.524;2022-07-04T07:21:47;98830.94;;;23.96;60.35
67818;BME280;54614;47.576;7.524;2022-07-04T07:24:13;98831.09;;;23.81;60.62
67818;BME280;54614;47.576;7.524;2022-07-04T07:26:39;98826.94;;;23.78;60.84
67818;BME280;54614;47.576;7.524;2022-07-04T07:29:05;98826.66;;;23.60;61.66
67818;BME280;54614;47.576;7.524;2022-07-04T07:31:31;98819.75;;;23.92;60.38
67818;BME280;54614;47.576;7.524;2022-07-04T07:33:57;98827.25;;;24.10;59.39
67818;BME280;54614;47.576;7.524;2022-07-04T07:36:23;98827.28;;;24.17;60.01
67818;BME280;54614;47.576;7.524;2022-07-04T07:38:49;98820.84;;;24.04;60.29
67818;BME280;54614;47.576;7.524;2022-07-04T07:41:15;98811.53;;;24.00;60.49
67818;BME280;54614;47.576;7.524;2022-07-04T07:43:41;98805.75;;;24.10;60.18
67818;BME280;54614;47.576;7.524;2022-07-04T07:46:08;98799.56;;;24.16;59.77
67818;BME280;54614;47.576;7.524;2022-07-04T07:48:34;98803.09;;;24.17;60.28
67818;BME280;54614;47.576;7.524;2022-07-04T07:51:00;98792.34;;;24.17;59.58
67818;BME280;54614;47.576;7.524;2022-07-04T07:53:26;98789.84;;;24.15;59.62
67818;BME280;54614;47.576;7.524;2022-07-04T07:55:52;98799.16;;;24.13;59.29
67818;BME280;54614;47.576;7.524;2022-07-04T07:58:18;98789.63;;;24.10;59.56
67818;BME280;54614;47.576;7.524;2022-07-04T08:00:46;98791.31;;;24.18;59.52
67818;BME280;54614;47.576;7.524;2022-07-04T08:03:12;98792.75;;;24.14;59.49
67818;BME280;54614;47.576;7.524;2022-07-04T08:05:57;98788.19;;;24.14;59.89
67818;BME280;54614;47.576;7.524;2022-07-04T08:08:22;98780.97;;;24.15;59.51
67818;BME280;54614;47.576;7.524;2022-07-04T08:10:50;98779.94;;;24.09;60.01
67818;BME280;54614;47.576;7.524;2022-07-04T08:13:16;98769.78;;;24.11;59.70
67818;BME280;54614;47.576;7.524;2022-07-04T08:15:42;98767.13;;;24.18;59.74
67818;BME280;54614;47.576;7.524;2022-07-04T08:18:08;98777.47;;;24.21;59.34
67818;BME280;54614;47.576;7.524;2022-07-04T08:20:34;98762.97;;;24.15;59.50
67818;BME280;54614;47.576;7.524;2022-07-04T08:23:00;98767.31;;;24.16;59.71
67818;BME280;54614;47.576;7.524;2022-07-04T08:25:25;98769.38;;;24.14;59.42
67818;BME280;54614;47.576;7.524;2022-07-04T08:27:51;98771.47;;;24.19;60.37
67818;BME280;54614;47.576;7.524;2022-07-04T08:30:17;98780.63;;;24.44;58.69
67818;BME280;54614;47.576;7.524;2022-07-04T08:32:43;98780.22;;;24.40;59.87
67818;BME280;54614;47.576;7.524;2022-07-04T08:35:09;98782.25;;;24.32;59.33
67818;BME280;54614;47.576;7.524;2022-07-04T08:37:35;98783.94;;;24.39;58.98
67818;BME280;54614;47.576;7.524;2022-07-04T08:40:02;98783.50;;;24.36;59.58
67818;BME280;54614;47.576;7.524;2022-07-04T08:42:37;98778.53;;;24.33;59.56
67818;BME280;54614;47.576;7.524;2022-07-04T08:45:04;98778.53;;;24.33;59.39
67818;BME280;54614;47.576;7.524;2022-07-04T08:47:35;98782.69;;;24.35;59.27
67818;BME280;54614;47.576;7.524;2022-07-04T08:50:17;98785.16;;;24.43;59.27
67818;BME280;54614;47.576;7.524;2022-07-04T08:53:11;98790.34;;;24.52;59.34
67818;BME280;54614;47.576;7.524;2022-07-04T08:55:42;98790.75;;;24.55;59.30
67818;BME280;54614;47.576;7.524;2022-07-04T08:58:42;98782.50;;;24.57;58.99
67818;BME280;54614;47.576;7.524;2022-07-04T09:01:11;98781.22;;;24.86;57.98
67818;BME280;54614;47.576;7.524;2022-07-04T09:03:44;98781.25;;;24.72;58.59
67818;BME280;54614;47.576;7.524;2022-07-04T09:06:12;98783.50;;;24.75;58.04
67818;BME280;54614;47.576;7.524;2022-07-04T09:08:39;98775.44;;;24.82;57.82
67818;BME280;54614;47.576;7.524;2022-07-04T09:11:07;98773.56;;;24.83;58.03
67818;BME280;54614;47.576;7.524;2022-07-04T09:13:34;98782.25;;;24.85;57.58
67818;BME280;54614;47.576;7.524;2022-07-04T09:16:01;98770.66;;;24.91;57.21
67818;BME280;54614;47.576;7.524;2022-07-04T09:18:33;98775.00;;;25.12;56.90
67818;BME280;54614;47.576;7.524;2022-07-04T09:21:05;98775.59;;;25.20;56.51
67818;BME280;54614;47.576;7.524;2022-07-04T09:23:39;98772.75;;;25.02;56.95
67818;BME280;54614;47.576;7.524;2022-07-04T09:26:20;98771.50;;;25.11;56.61
67818;BME280;54614;47.576;7.524;2022-07-04T09:28:57;98778.09;;;25.22;56.28
67818;BME280;54614;47.576;7.524;2022-07-04T09:31:27;98792.16;;;25.24;55.96
67818;BME280;54614;47.576;7.524;2022-07-04T09:33:59;98787.16;;;25.34;56.27
67818;BME280;54614;47.576;7.524;2022-07-04T09:36:28;98780.59;;;25.17;56.32
67818;BME280;54614;47.576;7.524;2022-07-04T09:39:14;98776.22;;;25.22;56.58
67818;BME280;54614;47.576;7.524;2022-07-04T09:41:59;98777.25;;;25.21;56.39
67818;BME280;54614;47.576;7.524;2022-07-04T09:44:46;98781.38;;;25.37;56.12
67818;BME280;54614;47.576;7.524;2022-07-04T09:47:28;98778.53;;;25.12;57.08
67818;BME280;54614;47.576;7.524;2022-07-04T09:50:22;98784.16;;;24.97;57.46
67818;BME280;54614;47.576;7.524;2022-07-04T09:53:00;98787.63;;;24.91;57.63
67818;BME280;54614;47.576;7.524;2022-07-04T09:55:33;98788.47;;;24.92;57.25
67818;BME280;54614;47.576;7.524;2022-07-04T09:58:07;98784.75;;;24.86;57.51
67818;BME280;54614;47.576;7.524;2022-07-04T10:00:36;98789.50;;;24.91;56.99
67818;BME280;54614;47.576;7.524;2022-07-04T10:03:27;98788.69;;;24.90;57.07
67818;BME280;54614;47.576;7.524;2022-07-04T10:06:13;98778.75;;;24.91;57.08
67818;BME280;54614;47.576;7.524;2022-07-04T10:08:43;98778.75;;;24.91;56.89
67818;BME280;54614;47.576;7.524;2022-07-04T10:11:10;98777.72;;;24.92;56.72
67818;BME280;54614;47.576;7.524;2022-07-04T10:13:38;98779.34;;;24.93;56.77
67818;BME280;54614;47.576;7.524;2022-07-04T10:16:04;98773.97;;;24.93;56.82
67818;BME280;54614;47.576;7.524;2022-07-04T10:18:30;98772.31;;;24.92;56.68
67818;BME280;54614;47.576;7.524;2022-07-04T10:20:57;98771.28;;;24.93;56.74
67818;BME280;54614;47.576;7.524;2022-07-04T10:23:24;98772.53;;;24.90;56.92
67818;BME280;54614;47.576;7.524;2022-07-04T10:25:56;98765.69;;;24.94;56.41
67818;BME280;54614;47.576;7.524;2022-07-04T10:28:23;98774.59;;;24.95;56.70
67818;BME280;54614;47.576;7.524;2022-07-04T10:30:57;98771.91;;;24.95;56.26
67818;BME280;54614;47.576;7.524;2022-07-04T10:33:28;98771.06;;;25.14;56.07
67818;BME280;54614;47.576;7.524;2022-07-04T10:36:12;98775.81;;;25.19;55.89
67818;BME280;54614;47.576;7.524;2022-07-04T10:38:55;98764.25;;;25.12;56.12
67818;BME280;54614;47.576;7.524;2022-07-04T10:41:22;98766.53;;;25.08;56.21
67818;BME280;54614;47.576;7.524;2022-07-04T10:43:55;98770.66;;;25.11;56.22
67818;BME280;54614;47.576;7.524;2022-07-04T10:52:01;98770.25;;;25.07;56.27
67818;BME280;54614;47.576;7.524;2022-07-04T10:54:36;98762.59;;;25.11;56.04
67818;BME280;54614;47.576;7.524;2022-07-04T10:57:20;98765.06;;;25.12;56.13
67818;BME280;54614;47.576;7.524;2022-07-04T11:18:10;98764.66;;;25.09;55.76
67818;BME280;54614;47.576;7.524;2022-07-04T11:20:38;98764.88;;;25.07;55.70
67818;BME280;54614;47.576;7.524;2022-07-04T11:23:10;98765.59;;;25.41;55.40
67818;BME280;54614;47.576;7.524;2022-07-04T11:25:38;98763.38;;;25.31;55.43
67818;BME280;54614;47.576;7.524;2022-07-04T11:28:24;98764.84;;;25.20;55.84
67818;BME280;54614;47.576;7.524;2022-07-04T11:30:52;98761.50;;;25.31;54.86
67818;BME280;54614;47.576;7.524;2022-07-04T11:33:25;98769.88;;;25.61;54.32
67818;BME280;54614;47.576;7.524;2022-07-04T11:36:08;98765.31;;;25.68;53.67
67818;BME280;54614;47.576;7.524;2022-07-04T11:41:17;98763.13;;;25.90;52.78
67818;BME280;54614;47.576;7.524;2022-07-04T11:44:08;98756.34;;;25.81;53.00
67818;BME280;54614;47.576;7.524;2022-07-04T11:52:21;98738.63;;;25.98;52.30
67818;BME280;54614;47.576;7.524;2022-07-04T11:54:49;98735.91;;;25.98;52.26
67818;BME280;54614;47.576;7.524;2022-07-04T11:57:28;98720.56;;;25.99;52.38
67818;BME280;54614;47.576;7.524;2022-07-04T12:00:00;98716.44;;;25.96;52.29
67818;BME280;54614;47.576;7.524;2022-07-04T12:02:29;98712.94;;;25.96;52.54
67818;BME280;54614;47.576;7.524;2022-07-04T12:04:56;98710.81;;;26.05;52.08
67818;BME280;54614;47.576;7.524;2022-07-04T12:07:28;98701.03;;;26.10;51.84
67818;BME280;54614;47.576;7.524;2022-07-04T12:09:55;98698.34;;;26.10;51.89
67818;BME280;54614;47.576;7.524;2022-07-04T12:12:22;98692.34;;;26.08;52.10
67818;BME280;54614;47.576;7.524;2022-07-04T12:14:59;98700.03;;;26.05;51.98
67818;BME280;54614;47.576;7.524;2022-07-04T12:17:35;98703.56;;;26.05;52.15
67818;BME280;54614;47.576;7.524;2022-07-04T12:22:50;98700.44;;;26.08;51.96
67818;BME280;54614;47.576;7.524;2022-07-04T12:25:32;98708.09;;;26.11;51.87
67818;BME280;54614;47.576;7.524;2022-07-04T12:28:11;98694.59;;;26.11;51.90
67818;BME280;54614;47.576;7.524;2022-07-04T12:30:47;98692.97;;;25.72;53.10
67818;BME280;54614;47.576;7.524;2022-07-04T12:33:13;98689.34;;;25.47;53.93
67818;BME280;54614;47.576;7.524;2022-07-04T12:35:58;98695.19;;;25.37;54.24
67818;BME280;54614;47.576;7.524;2022-07-04T12:41:10;98703.66;;;25.41;54.26
67818;BME280;54614;47.576;7.524;2022-07-04T12:46:10;98702.09;;;25.64;54.31
67818;BME280;54614;47.576;7.524;2022-07-04T12:48:38;98699.94;;;25.42;54.80
67818;BME280;54614;47.576;7.524;2022-07-04T12:51:34;98695.19;;;25.37;54.79
67818;BME280;54614;47.576;7.524;2022-07-04T12:54:09;98697.88;;;25.37;54.91
67818;BME280;54614;47.576;7.524;2022-07-04T12:56:46;98701.63;;;25.36;55.12
67818;BME280;54614;47.576;7.524;2022-07-04T12:59:14;98697.25;;;25.42;54.59
67818;BME280;54614;47.576;7.524;2022-07-04T13:01:43;98703.00;;;25.52;54.78
67818;BME280;54614;47.576;7.524;2022-07-04T13:04:10;98691.63;;;25.50;54.87
67818;BME280;54614;47.576;7.524;2022-07-04T13:06:37;98694.88;;;25.58;54.39
67818;BME280;54614;47.576;7.524;2022-07-04T13:09:06;98692.44;;;25.50;55.07
67818;BME280;54614;47.576;7.524;2022-07-04T13:11:34;98695.28;;;25.62;54.80
67818;BME280;54614;47.576;7.524;2022-07-04T13:14:19;98677.47;;;25.61;54.37
67818;BME280;54614;47.576;7.524;2022-07-04T13:16:45;98690.19;;;25.47;55.07
67818;BME280;54614;47.576;7.524;2022-07-04T13:19:11;98687.06;;;25.88;54.66
67818;BME280;54614;47.576;7.524;2022-07-04T13:21:37;98672.47;;;26.34;53.28
67818;BME280;54614;47.576;7.524;2022-07-04T13:24:04;98663.59;;;26.70;52.68
67818;BME280;54614;47.576;7.524;2022-07-04T13:26:30;98665.28;;;26.21;53.89
67818;BME280;54614;47.576;7.524;2022-07-04T13:28:58;98670.88;;;25.88;55.04
67818;BME280;54614;47.576;7.524;2022-07-04T13:31:24;98681.59;;;25.63;55.78
67818;BME280;54614;47.576;7.524;2022-07-04T13:33:50;98679.34;;;25.60;58.49
67818;BME280;54614;47.576;7.524;2022-07-04T13:36:18;98678.50;;;25.66;58.65
67818;BME280;54614;47.576;7.524;2022-07-04T13:38:44;98668.34;;;25.62;57.68
67818;BME280;54614;47.576;7.524;2022-07-04T13:41:10;98663.38;;;25.59;58.48
67818;BME280;54614;47.576;7.524;2022-07-04T13:43:36;98660.25;;;25.68;58.37
67818;BME280;54614;47.576;7.524;2022-07-04T13:46:02;98658.34;;;25.76;57.48
67818;BME280;54614;47.576;7.524;2022-07-04T13:48:28;98660.38;;;25.80;56.83